X  Fermer Observations météorologiques des aéroports: METeorological Aerodrome Report.        LFLY Lyon
Température
2°C Température
-2°C Point de rosée
75% Humidité



Vent
15 KM/H
9 MPH
4 M/S
8 KTS



350°
N
Conditions actuelles

Cloudy Nuageux
Pression 1003 (hPa) - 29.62 (inHg)
Visibilité 30 (miles) - 48 (km)
Temps actuel Metar LYON
Code de l'aéroport LFLY

Emplacement: Lyon
Distance: 67 (km)

Metar:
METAR LFLY 240530Z AUTO 35008KT 9999 OVC028 02/M02 Q1002 NOSIG

Temps: 24-01-2021 06:30 CET